createdAt,value
2022-09-28T00:01:59.592Z,11.68
2022-09-28T00:05:41.658Z,8.50
2022-09-28T00:09:23.801Z,14.30
2022-09-28T00:13:07.823Z,12.45
2022-09-28T00:16:50.086Z,16.38
2022-09-28T00:20:32.244Z,12.77
2022-09-28T00:24:19.960Z,10.70
2022-09-28T00:28:05.294Z,9.27
2022-09-28T00:31:48.465Z,13.63
2022-09-28T00:35:31.151Z,10.07
2022-09-28T00:39:14.635Z,10.60
2022-09-28T00:42:56.673Z,14.52
2022-09-28T00:46:38.775Z,14.90
2022-09-28T00:50:29.487Z,8.85
2022-09-28T00:54:12.832Z,10.73
2022-09-28T00:58:00.393Z,11.85
2022-09-28T01:01:42.315Z,13.77
2022-09-28T01:05:25.170Z,14.75
2022-09-28T01:09:10.543Z,12.02
2022-09-28T01:12:52.496Z,9.75
2022-09-28T01:16:40.384Z,12.40
2022-09-28T01:20:28.217Z,6.78
2022-09-28T01:24:33.258Z,12.32
2022-09-28T01:28:18.252Z,18.98
2022-09-28T01:32:31.608Z,10.38
2022-09-28T01:36:25.241Z,11.07
2022-09-28T01:40:09.985Z,10.80
2022-09-28T01:43:56.919Z,14.55
2022-09-28T01:47:41.452Z,13.80
2022-09-28T01:51:49.503Z,6.47
2022-09-28T01:55:44.043Z,8.07
2022-09-28T01:59:30.016Z,10.25
2022-09-28T02:03:20.740Z,16.13
2022-09-28T02:07:11.808Z,14.23
2022-09-28T02:11:01.967Z,6.82
2022-09-28T02:14:47.878Z,9.52
2022-09-28T02:18:29.922Z,8.48
2022-09-28T02:22:25.958Z,12.38
2022-09-28T02:26:13.950Z,8.55
2022-09-28T02:29:55.888Z,8.73
2022-09-28T02:33:41.364Z,12.10
2022-09-28T02:37:23.475Z,10.65
2022-09-28T02:41:33.821Z,12.02
2022-09-28T02:45:46.012Z,6.90
2022-09-28T02:49:34.967Z,10.02
2022-09-28T02:53:41.351Z,14.63
2022-09-28T02:57:40.813Z,11.35
2022-09-28T03:01:54.716Z,8.32
2022-09-28T03:06:02.120Z,7.60
2022-09-28T03:09:54.103Z,9.50
2022-09-28T03:13:36.077Z,9.88
2022-09-28T03:17:20.597Z,9.00
2022-09-28T03:21:05.316Z,9.27
2022-09-28T03:24:47.144Z,7.15
2022-09-28T03:28:29.318Z,13.10
2022-09-28T03:32:11.146Z,5.78
2022-09-28T03:35:53.432Z,8.23
2022-09-28T03:39:35.263Z,8.35
2022-09-28T03:43:17.079Z,9.23
2022-09-28T03:46:58.894Z,9.25
2022-09-28T03:50:40.735Z,10.90
2022-09-28T03:54:22.636Z,7.80
2022-09-28T03:58:04.463Z,8.13
2022-09-28T04:01:49.620Z,8.02
2022-09-28T04:05:31.535Z,9.95
2022-09-28T04:09:13.539Z,11.75
2022-09-28T04:12:56.660Z,10.65
2022-09-28T04:16:38.594Z,10.30
2022-09-28T04:20:20.511Z,14.77
2022-09-28T04:24:02.455Z,11.52
2022-09-28T04:28:02.816Z,10.32
2022-09-28T04:31:49.608Z,5.05
2022-09-28T04:35:31.969Z,11.25
2022-09-28T04:39:15.765Z,10.55
2022-09-28T04:42:57.702Z,10.00
2022-09-28T04:46:39.532Z,9.90
2022-09-28T04:50:21.471Z,7.55
2022-09-28T04:54:03.372Z,6.43
2022-09-28T04:57:45.229Z,9.82
2022-09-28T05:01:27.285Z,7.47
2022-09-28T05:05:09.308Z,5.35
2022-09-28T05:08:51.947Z,7.25
2022-09-28T05:12:33.776Z,10.35
2022-09-28T05:16:16.588Z,7.70
2022-09-28T05:19:58.515Z,7.70
2022-09-28T05:23:41.251Z,7.93
2022-09-28T05:27:23.156Z,9.30
2022-09-28T05:31:05.789Z,9.90
2022-09-28T05:34:47.713Z,7.70
2022-09-28T05:38:30.401Z,8.63
2022-09-28T05:42:12.299Z,7.25
2022-09-28T05:45:55.799Z,8.43
2022-09-28T05:49:37.821Z,11.35
2022-09-28T05:53:20.142Z,12.80
2022-09-28T05:57:01.983Z,11.77
2022-09-28T06:00:44.140Z,9.93
2022-09-28T06:04:25.940Z,8.52
2022-09-28T06:08:10.392Z,7.55
2022-09-28T06:11:53.591Z,7.60
2022-09-28T06:15:36.879Z,6.35
2022-09-28T06:19:18.939Z,10.40
2022-09-28T06:23:00.811Z,7.80
2022-09-28T06:26:42.699Z,8.15
2022-09-28T06:30:27.407Z,11.18
2022-09-28T06:34:10.330Z,10.00
2022-09-28T06:37:53.401Z,7.40
2022-09-28T06:41:35.214Z,8.20
2022-09-28T06:45:21.871Z,6.95
2022-09-28T06:49:04.686Z,8.00
2022-09-28T06:52:49.272Z,6.93
2022-09-28T06:56:33.115Z,10.65
2022-09-28T07:00:15.555Z,9.13
2022-09-28T07:03:57.940Z,8.38
2022-09-28T07:07:40.595Z,9.75
2022-09-28T07:11:22.407Z,9.20
2022-09-28T07:15:05.044Z,5.75
2022-09-28T07:18:46.906Z,10.77
2022-09-28T07:22:40.620Z,8.10
2022-09-28T07:26:26.027Z,6.90
2022-09-28T07:30:08.384Z,8.82
2022-09-28T07:33:51.267Z,8.43
2022-09-28T07:37:33.106Z,13.52
2022-09-28T07:41:17.316Z,7.15
2022-09-28T07:44:59.525Z,9.38
2022-09-28T07:48:42.812Z,4.88
2022-09-28T07:52:26.258Z,7.00
2022-09-28T07:56:09.473Z,7.60
2022-09-28T07:59:53.619Z,8.18
2022-09-28T08:03:35.654Z,5.93
2022-09-28T08:07:23.499Z,6.22
2022-09-28T08:11:10.510Z,4.65
2022-09-28T08:14:52.760Z,7.20
2022-09-28T08:18:36.059Z,5.90
2022-09-28T08:22:19.812Z,5.65
2022-09-28T08:26:01.922Z,6.45
2022-09-28T08:29:43.852Z,4.97
2022-09-28T08:33:25.829Z,3.90
2022-09-28T08:37:09.224Z,6.35
2022-09-28T08:41:41.914Z,6.22
2022-09-28T08:45:29.178Z,4.88
2022-09-28T08:49:26.768Z,7.30
2022-09-28T08:53:33.059Z,7.57
2022-09-28T08:57:30.961Z,3.92
2022-09-28T09:01:16.547Z,7.35
2022-09-28T09:05:00.544Z,7.97
2022-09-28T09:08:57.313Z,5.60
2022-09-28T09:13:11.816Z,5.90
2022-09-28T09:17:13.951Z,3.78
2022-09-28T09:20:57.090Z,6.13
2022-09-28T09:24:49.709Z,5.72
2022-09-28T09:28:48.776Z,2.47
2022-09-28T09:32:36.492Z,7.13
2022-09-28T09:36:34.801Z,4.80
2022-09-28T09:40:50.319Z,5.07
2022-09-28T09:44:57.191Z,7.03
2022-09-28T09:48:52.456Z,4.27
2022-09-28T09:52:44.497Z,8.60
2022-09-28T09:56:39.614Z,3.13
2022-09-28T10:00:22.251Z,3.45
2022-09-28T10:04:11.914Z,3.83
2022-09-28T10:07:59.700Z,8.98
2022-09-28T10:11:48.285Z,6.43
2022-09-28T10:15:32.341Z,3.53
2022-09-28T10:19:16.990Z,3.60
2022-09-28T10:23:02.214Z,3.22
2022-09-28T10:26:49.383Z,4.35
2022-09-28T10:30:41.998Z,2.67
2022-09-28T10:34:30.852Z,3.83
2022-09-28T10:38:19.210Z,2.80
2022-09-28T10:42:04.252Z,3.22
2022-09-28T10:45:46.440Z,1.10
2022-09-28T10:49:32.035Z,3.90
2022-09-28T10:53:21.295Z,4.07
2022-09-28T10:57:03.205Z,3.97
2022-09-28T11:00:45.320Z,4.35
2022-09-28T11:04:30.219Z,1.20
2022-09-28T11:08:19.299Z,2.08
2022-09-28T11:12:04.304Z,8.63
2022-09-28T11:15:46.443Z,3.28
2022-09-28T11:19:29.800Z,1.83
2022-09-28T11:23:26.698Z,1.85
2022-09-28T11:27:23.111Z,3.30
2022-09-28T11:31:08.008Z,4.38
2022-09-28T11:34:59.612Z,3.88
2022-09-28T11:38:53.742Z,4.78
2022-09-28T11:42:49.706Z,1.67
2022-09-28T11:46:56.174Z,2.15
2022-09-28T11:50:49.631Z,2.08
2022-09-28T11:54:42.603Z,3.13
2022-09-28T11:58:35.170Z,2.60
2022-09-28T12:02:23.372Z,4.10
2022-09-28T12:06:10.148Z,6.28
2022-09-28T12:10:15.075Z,3.70
2022-09-28T12:14:00.594Z,1.08
2022-09-28T12:18:06.195Z,1.55
2022-09-28T12:21:51.506Z,5.65
2022-09-28T12:25:57.628Z,1.60
2022-09-28T12:29:47.693Z,1.95
2022-09-28T12:33:29.512Z,1.30
2022-09-28T12:37:37.059Z,1.85
2022-09-28T12:41:22.609Z,2.00
2022-09-28T12:45:47.918Z,5.40
2022-09-28T12:50:37.637Z,2.13
2022-09-28T12:54:24.969Z,1.60
2022-09-28T12:58:44.498Z,3.78
2022-09-28T13:03:23.775Z,0.50
2022-09-28T13:07:14.657Z,1.65
2022-09-28T13:11:20.929Z,1.70
2022-09-28T13:15:05.440Z,2.78
2022-09-28T13:19:11.523Z,20.92
2022-09-28T13:23:19.330Z,2.88
2022-09-28T13:27:13.546Z,2.95
2022-09-28T13:34:50.488Z,3.05
2022-09-28T13:42:52.696Z,1.50
2022-09-28T13:46:53.336Z,4.60
2022-09-28T13:51:26.326Z,4.40
2022-09-28T13:55:37.334Z,3.15
2022-09-28T13:59:24.810Z,1.98
2022-09-28T14:03:06.671Z,2.90
2022-09-28T14:07:21.775Z,3.08
2022-09-28T14:11:25.089Z,1.27
2022-09-28T14:15:38.613Z,3.05
2022-09-28T14:19:33.251Z,1.83
2022-09-28T14:23:34.740Z,1.50
2022-09-28T14:27:25.605Z,2.85
2022-09-28T14:31:14.285Z,3.67
2022-09-28T14:35:07.817Z,5.40
2022-09-28T14:39:28.608Z,3.75
2022-09-28T14:43:28.112Z,11.90
2022-09-28T14:47:34.129Z,4.00
2022-09-28T14:51:26.235Z,4.22
2022-09-28T14:55:14.356Z,4.95
2022-09-28T14:58:58.821Z,4.30
2022-09-28T15:02:47.275Z,1.85
2022-09-28T15:06:47.840Z,2.22
2022-09-28T15:10:36.895Z,2.63
2022-09-28T15:14:18.936Z,2.25
2022-09-28T15:18:19.288Z,1.13
2022-09-28T15:22:01.257Z,1.92
2022-09-28T15:25:52.500Z,3.90
2022-09-28T15:29:34.443Z,1.42
2022-09-28T15:33:42.875Z,3.80
2022-09-28T15:37:40.318Z,2.17
2022-09-28T15:41:24.592Z,3.20
2022-09-28T15:45:13.243Z,1.88
2022-09-28T15:48:59.160Z,4.45
2022-09-28T15:53:05.493Z,2.72
2022-09-28T15:56:59.824Z,2.80
2022-09-28T16:00:42.681Z,4.43
2022-09-28T16:04:47.986Z,3.58
2022-09-28T16:08:35.817Z,6.68
2022-09-28T16:12:20.047Z,5.50
2022-09-28T16:16:02.005Z,3.13
2022-09-28T16:19:48.642Z,4.60
2022-09-28T16:23:34.047Z,4.40
2022-09-28T16:27:41.719Z,2.80
2022-09-28T16:31:33.761Z,3.38
2022-09-28T16:35:26.596Z,1.23
2022-09-28T16:39:11.473Z,1.38
2022-09-28T16:42:57.366Z,3.70
2022-09-28T16:46:39.360Z,1.02
2022-09-28T16:50:22.375Z,1.38
2022-09-28T16:54:32.771Z,1.08
2022-09-28T16:58:14.658Z,4.13
2022-09-28T17:01:56.864Z,3.88
2022-09-28T17:05:40.215Z,1.50
2022-09-28T17:09:22.886Z,3.45
2022-09-28T17:13:05.168Z,3.13
2022-09-28T17:17:07.388Z,1.50
2022-09-28T17:20:55.078Z,1.77
2022-09-28T17:24:37.388Z,1.27
2022-09-28T17:28:32.113Z,3.13
2022-09-28T17:32:18.908Z,3.10
2022-09-28T17:36:02.968Z,2.78
2022-09-28T17:39:44.847Z,1.85
2022-09-28T17:43:26.663Z,3.95
2022-09-28T17:47:09.288Z,3.83
2022-09-28T17:50:51.324Z,1.48
2022-09-28T17:54:34.295Z,2.28
2022-09-28T17:58:19.383Z,8.95
2022-09-28T18:02:02.523Z,4.95
2022-09-28T18:05:45.448Z,4.97
2022-09-28T18:09:27.610Z,6.00
2022-09-28T18:13:10.107Z,5.60
2022-09-28T18:16:52.034Z,10.48
2022-09-28T18:20:35.395Z,5.30
2022-09-28T18:24:17.295Z,4.45
2022-09-28T18:28:00.382Z,6.68
2022-09-28T18:31:42.295Z,4.47
2022-09-28T18:35:24.365Z,2.75
2022-09-28T18:39:06.267Z,3.45
2022-09-28T18:42:50.300Z,2.80
2022-09-28T18:46:36.336Z,4.95
2022-09-28T18:50:18.408Z,6.93
2022-09-28T18:54:06.765Z,7.50
2022-09-28T18:57:48.674Z,4.35
2022-09-28T19:01:31.506Z,4.93
2022-09-28T19:05:13.856Z,4.53
2022-09-28T19:08:56.439Z,3.75
2022-09-28T19:12:38.295Z,7.50
2022-09-28T19:16:22.695Z,6.32
2022-09-28T19:20:04.965Z,4.38
2022-09-28T19:23:49.766Z,4.13
2022-09-28T19:27:32.339Z,9.13
2022-09-28T19:31:14.228Z,6.43
2022-09-28T19:34:56.231Z,11.55
2022-09-28T19:38:39.387Z,6.82
2022-09-28T19:42:21.195Z,6.50
2022-09-28T19:46:06.979Z,7.03
2022-09-28T19:49:49.681Z,4.47
2022-09-28T19:53:36.616Z,3.90
2022-09-28T19:57:19.604Z,5.93
2022-09-28T20:01:08.091Z,3.15
2022-09-28T20:04:50.087Z,4.38
2022-09-28T20:08:32.078Z,4.85
2022-09-28T20:12:13.893Z,7.18
2022-09-28T20:15:56.479Z,4.78
2022-09-28T20:19:38.466Z,5.25
2022-09-28T20:23:21.744Z,5.75
2022-09-28T20:27:03.695Z,4.80
2022-09-28T20:30:45.634Z,4.63
2022-09-28T20:34:27.501Z,4.38
2022-09-28T20:38:09.376Z,7.50
2022-09-28T20:41:51.755Z,4.90
2022-09-28T20:45:39.522Z,4.13
2022-09-28T20:49:21.704Z,3.30
2022-09-28T20:53:03.591Z,5.30
2022-09-28T20:56:48.121Z,5.32
2022-09-28T21:00:30.567Z,6.65
2022-09-28T21:04:12.556Z,5.07
2022-09-28T21:07:54.480Z,6.28
2022-09-28T21:11:36.463Z,4.15
2022-09-28T21:15:18.345Z,5.65
2022-09-28T21:19:00.439Z,4.90
2022-09-28T21:22:42.307Z,5.05
2022-09-28T21:26:26.931Z,8.15
2022-09-28T21:30:09.416Z,3.58
2022-09-28T21:33:51.680Z,4.82
2022-09-28T21:37:33.477Z,3.15
2022-09-28T21:41:15.318Z,2.95
2022-09-28T21:44:59.442Z,3.40
2022-09-28T21:48:41.563Z,4.70
2022-09-28T21:52:23.431Z,4.18
2022-09-28T21:56:07.523Z,3.13
2022-09-28T21:59:49.325Z,2.22
2022-09-28T22:03:32.440Z,3.53
2022-09-28T22:07:14.391Z,6.55
2022-09-28T22:11:01.232Z,4.65
2022-09-28T22:14:43.109Z,1.95
2022-09-28T22:18:30.064Z,3.45
2022-09-28T22:22:11.888Z,2.67
2022-09-28T22:26:01.691Z,3.65
2022-09-28T22:29:43.591Z,3.40
2022-09-28T22:33:26.470Z,2.28
2022-09-28T22:37:08.281Z,2.35
2022-09-28T22:40:55.607Z,1.67
2022-09-28T22:44:37.772Z,2.33
2022-09-28T22:48:19.592Z,2.95
2022-09-28T22:52:01.659Z,4.28
2022-09-28T22:55:43.958Z,4.20
2022-09-28T22:59:25.943Z,1.95
2022-09-28T23:03:07.843Z,3.05
2022-09-28T23:06:49.726Z,3.40
2022-09-28T23:10:31.792Z,1.60
2022-09-28T23:14:13.707Z,3.03
2022-09-28T23:17:55.738Z,4.68
2022-09-28T23:21:38.056Z,2.35
2022-09-28T23:25:20.048Z,2.08
2022-09-28T23:29:01.970Z,3.60
2022-09-28T23:32:44.199Z,2.75
2022-09-28T23:36:26.578Z,1.67
2022-09-28T23:40:08.660Z,3.88
2022-09-28T23:43:50.588Z,3.83
2022-09-28T23:47:32.470Z,3.92
2022-09-28T23:51:14.337Z,4.85
2022-09-28T23:54:56.147Z,4.43
2022-09-28T23:58:38.047Z,4.50
